Time;durP1;ratioP1;P1;durP2;ratioP2;P2;SDS_P1;SDS_P2;PMS_P1;PMS_P2;Temp;Humidity;BMP_temperature;BMP_pressure;BME280_temperature;BME280_humidity;BME280_pressure;Samples;Min_cycle;Max_cycle;Signal;HPM_P1;HPM_P2
2022/05/11 00:01:38;;;;;;;9.80;8.90;;;17.70;99.90;;;;;;5058696;28;20798;-59
2022/05/11 00:04:06;;;;;;;9.65;8.75;;;17.80;99.90;;;;;;5056129;28;20702;-59
2022/05/11 00:06:32;;;;;;;9.85;9.05;;;17.80;99.90;;;;;;5056080;28;20208;-60
2022/05/11 00:08:58;;;;;;;10.57;9.18;;;17.60;99.90;;;;;;5058282;28;20197;-59
2022/05/11 00:11:27;;;;;;;10.67;9.77;;;17.60;99.90;;;;;;5059160;28;20690;-61
2022/05/11 00:13:53;;;;;;;11.20;10.20;;;17.60;99.90;;;;;;5051163;28;20963;-59
2022/05/11 00:16:19;;;;;;;11.07;10.07;;;17.60;99.90;;;;;;5061029;28;20198;-60
2022/05/11 00:18:44;;;;;;;10.87;9.40;;;17.60;99.90;;;;;;5061172;28;20185;-60
2022/05/11 00:21:10;;;;;;;9.60;8.90;;;17.50;99.90;;;;;;5058410;28;20188;-59
2022/05/11 00:23:37;;;;;;;9.60;8.70;;;17.40;99.90;;;;;;5058526;28;20184;-58
2022/05/11 00:26:03;;;;;;;10.73;9.63;;;17.30;99.90;;;;;;5049241;28;20236;-61
2022/05/11 00:28:29;;;;;;;10.23;9.43;;;17.50;99.90;;;;;;5060260;28;20192;-61
2022/05/11 00:30:55;;;;;;;10.77;9.67;;;17.40;99.90;;;;;;5060647;28;20212;-59
2022/05/11 00:33:21;;;;;;;10.90;10.00;;;17.40;99.90;;;;;;5054814;28;20189;-59
2022/05/11 00:35:49;;;;;;;11.07;10.02;;;17.40;99.90;;;;;;5047737;28;20205;-60
2022/05/11 00:38:16;;;;;;;9.90;9.10;;;17.50;99.90;;;;;;5051711;28;20185;-59
2022/05/11 00:40:50;;;;;;;10.00;9.10;;;17.20;99.90;;;;;;5055029;28;20184;-59
2022/05/11 00:43:35;;;;;;;10.13;9.13;;;17.00;99.90;;;;;;5048045;28;20255;-60
2022/05/11 00:46:21;;;;;;;10.40;9.50;;;17.20;99.90;;;;;;5057513;28;20248;-59
2022/05/11 00:51:42;;;;;;;10.30;9.50;;;17.10;99.90;;;;;;5051755;28;20255;-59
2022/05/11 00:54:09;;;;;;;9.60;8.80;;;17.00;99.90;;;;;;5047962;28;20668;-60
2022/05/11 00:56:39;;;;;;;8.73;8.13;;;17.00;99.90;;;;;;5053482;28;20213;-61
2022/05/11 00:59:11;;;;;;;9.70;8.80;;;17.00;99.90;;;;;;5057370;28;20182;-60
2022/05/11 01:01:40;;;;;;;9.68;8.85;;;17.00;99.90;;;;;;5054195;28;20284;-61
2022/05/11 01:04:15;;;;;;;9.15;8.35;;;17.20;99.90;;;;;;5051555;28;20662;-59
2022/05/11 01:06:42;;;;;;;9.57;8.77;;;17.10;99.90;;;;;;5056912;28;20193;-59
2022/05/11 01:09:08;;;;;;;9.45;8.55;;;17.10;99.90;;;;;;5056363;28;20181;-60
2022/05/11 01:11:39;;;;;;;9.55;8.65;;;16.70;99.90;;;;;;5051414;28;20224;-59
2022/05/11 01:14:09;;;;;;;9.75;8.95;;;16.90;99.90;;;;;;5056419;28;20194;-58
2022/05/11 01:16:35;;;;;;;9.10;8.30;;;16.90;99.90;;;;;;5060325;28;20165;-58
2022/05/11 01:19:03;;;;;;;9.68;8.30;;;16.60;99.90;;;;;;5056592;28;20193;-59
2022/05/11 01:21:38;;;;;;;9.18;8.25;;;16.70;99.90;;;;;;5059485;28;20183;-60
2022/05/11 01:24:28;;;;;;;9.68;8.88;;;16.70;99.90;;;;;;5056350;28;20185;-60
2022/05/11 01:26:55;;;;;;;7.80;7.20;;;16.90;99.90;;;;;;5060521;28;20204;-60
2022/05/11 01:29:22;;;;;;;9.75;8.85;;;16.60;99.90;;;;;;5053565;28;20195;-60
2022/05/11 01:31:48;;;;;;;10.25;9.27;;;16.70;99.90;;;;;;5056409;28;20304;-59
2022/05/11 01:34:18;;;;;;;8.63;7.83;;;16.40;99.90;;;;;;5045051;28;20265;-59
2022/05/11 01:36:46;;;;;;;9.60;8.70;;;16.50;99.90;;;;;;5057755;28;20185;-58
2022/05/11 01:39:12;;;;;;;9.57;8.52;;;16.70;99.90;;;;;;5050490;28;20230;-60
2022/05/11 01:41:43;;;;;;;8.83;8.03;;;16.50;99.90;;;;;;5057472;28;20635;-59
2022/05/11 01:44:16;;;;;;;8.73;8.05;;;16.70;99.90;;;;;;5058901;28;20196;-59
2022/05/11 01:46:53;;;;;;;9.02;8.23;;;16.40;99.90;;;;;;5062889;28;20203;-60
2022/05/11 01:49:21;;;;;;;9.68;8.88;;;16.70;99.90;;;;;;5045260;28;20188;-59
2022/05/11 01:51:47;;;;;;;9.25;8.45;;;16.30;99.90;;;;;;5052740;28;20576;-60
2022/05/11 01:54:14;;;;;;;8.82;8.02;;;16.10;99.90;;;;;;5057878;28;20189;-59
2022/05/11 01:56:40;;;;;;;10.10;9.20;;;16.40;99.90;;;;;;5060185;28;20527;-61
2022/05/11 01:59:06;;;;;;;9.23;8.50;;;16.50;99.90;;;;;;5057461;28;20272;-59
2022/05/11 02:01:35;;;;;;;8.07;7.43;;;16.20;99.90;;;;;;5051621;28;20309;-60
2022/05/11 02:04:01;;;;;;;8.23;7.50;;;16.30;99.90;;;;;;5050270;28;20201;-59
2022/05/11 02:09:12;;;;;;;7.80;7.05;;;16.50;99.90;;;;;;5067171;28;20193;-62
2022/05/11 02:11:38;;;;;;;7.68;7.07;;;16.50;99.90;;;;;;5059964;28;20342;-61
2022/05/11 02:14:04;;;;;;;9.35;7.05;;;16.30;99.90;;;;;;5056388;28;20184;-60
2022/05/11 02:16:30;;;;;;;8.13;7.53;;;16.20;99.90;;;;;;5060252;28;20176;-60
2022/05/11 02:18:55;;;;;;;7.20;6.60;;;16.30;99.90;;;;;;5060751;28;20569;-60
2022/05/11 02:21:21;;;;;;;8.20;7.40;;;16.60;99.90;;;;;;5062014;28;20184;-59
2022/05/11 02:23:50;;;;;;;7.82;7.13;;;16.40;99.90;;;;;;5058309;28;20200;-60
2022/05/11 02:26:16;;;;;;;6.90;6.25;;;16.50;99.90;;;;;;5055213;28;20300;-61
2022/05/11 02:28:42;;;;;;;7.70;7.10;;;16.40;99.90;;;;;;5058435;28;20181;-60
2022/05/11 02:31:09;;;;;;;7.17;6.57;;;16.40;99.90;;;;;;5058943;28;20215;-59
2022/05/11 02:33:34;;;;;;;8.27;7.57;;;16.70;99.90;;;;;;5051693;28;20959;-62
2022/05/11 02:36:01;;;;;;;7.87;7.17;;;16.50;99.90;;;;;;5060581;28;20204;-61
2022/05/11 02:38:30;;;;;;;7.85;7.05;;;16.40;99.90;;;;;;5060052;28;20177;-60
2022/05/11 02:40:56;;;;;;;8.20;7.43;;;16.40;99.90;;;;;;5057294;28;20185;-60
2022/05/11 02:43:22;;;;;;;7.50;6.90;;;16.50;99.90;;;;;;5062532;28;20538;-61
2022/05/11 02:45:49;;;;;;;7.20;6.50;;;16.50;99.90;;;;;;5056896;28;20224;-59
2022/05/11 02:48:19;;;;;;;7.90;7.10;;;16.30;99.90;;;;;;5058192;28;20978;-61
2022/05/11 02:50:49;;;;;;;7.80;7.10;;;16.40;99.90;;;;;;5060119;28;20634;-61
2022/05/11 02:53:16;;;;;;;7.75;7.05;;;16.50;99.90;;;;;;5055707;28;20212;-59
2022/05/11 02:55:44;;;;;;;7.82;7.15;;;16.30;99.90;;;;;;5060817;28;20566;-59
2022/05/11 02:58:12;;;;;;;7.57;6.97;;;16.40;99.90;;;;;;5056470;28;20169;-60
2022/05/11 03:00:40;;;;;;;7.70;6.90;;;16.40;99.90;;;;;;5056626;28;20260;-59
2022/05/11 03:03:06;;;;;;;8.60;7.80;;;16.50;99.90;;;;;;5057111;28;20197;-59
2022/05/11 03:05:33;;;;;;;7.50;6.90;;;16.20;99.90;;;;;;5058357;28;20773;-59
2022/05/11 03:07:58;;;;;;;7.78;7.18;;;16.40;99.90;;;;;;5061094;28;20186;-59
2022/05/11 03:10:24;;;;;;;8.63;7.93;;;16.40;99.90;;;;;;5056867;28;20204;-59
2022/05/11 03:12:50;;;;;;;8.10;7.43;;;16.30;99.90;;;;;;5065084;28;20560;-59
2022/05/11 03:15:16;;;;;;;7.63;7.00;;;16.10;99.90;;;;;;5055216;28;20538;-61
2022/05/11 03:17:42;;;;;;;7.40;6.80;;;16.40;99.90;;;;;;5058076;28;20939;-59
2022/05/11 03:20:09;;;;;;;7.90;7.20;;;16.30;99.90;;;;;;5054431;28;20177;-60
2022/05/11 03:22:35;;;;;;;8.80;8.00;;;16.20;99.90;;;;;;5057208;28;20543;-59
2022/05/11 03:25:00;;;;;;;8.30;7.60;;;16.30;99.90;;;;;;5062699;28;20292;-60
2022/05/11 03:27:26;;;;;;;7.43;6.83;;;16.20;99.90;;;;;;5058772;28;20654;-60
2022/05/11 03:29:53;;;;;;;7.67;7.07;;;16.20;99.90;;;;;;5057479;28;20263;-60
2022/05/11 03:35:05;;;;;;;7.68;7.07;;;16.30;99.90;;;;;;5054119;28;20209;-60
2022/05/11 03:37:31;;;;;;;7.90;7.30;;;16.40;99.90;;;;;;5050253;28;20662;-60
2022/05/11 03:39:56;;;;;;;8.43;7.70;;;16.30;99.90;;;;;;5058663;28;20188;-59
2022/05/11 03:42:28;;;;;;;7.20;6.60;;;16.30;99.90;;;;;;5058053;28;20181;-60
2022/05/11 03:44:55;;;;;;;9.15;8.15;;;16.30;99.90;;;;;;5049639;28;20225;-61
2022/05/11 03:47:20;;;;;;;7.75;7.05;;;16.50;99.90;;;;;;5050741;28;20181;-64
2022/05/11 03:49:46;;;;;;;8.80;7.87;;;16.40;99.90;;;;;;5049731;28;20193;-60
2022/05/11 03:52:13;;;;;;;7.70;7.10;;;16.40;99.90;;;;;;5046007;28;20567;-61
2022/05/11 03:54:38;;;;;;;7.97;7.18;;;16.30;99.90;;;;;;5059316;28;20239;-59
2022/05/11 03:57:04;;;;;;;9.33;7.43;;;16.20;99.90;;;;;;5058842;28;20560;-59
2022/05/11 03:59:30;;;;;;;9.43;8.63;;;16.30;99.90;;;;;;5051882;28;20246;-59
2022/05/11 04:01:56;;;;;;;7.70;7.00;;;16.30;99.90;;;;;;5057378;28;20238;-60
2022/05/11 04:04:21;;;;;;;8.10;7.43;;;16.20;99.90;;;;;;5054002;28;20224;-59
2022/05/11 04:06:47;;;;;;;8.40;7.60;;;16.20;99.90;;;;;;5049367;28;20197;-60
2022/05/11 04:09:13;;;;;;;8.97;8.27;;;16.30;99.90;;;;;;5049774;28;20192;-59
2022/05/11 04:11:38;;;;;;;7.07;6.47;;;16.20;99.90;;;;;;5048442;28;20205;-59
2022/05/11 04:14:04;;;;;;;7.33;6.73;;;16.20;99.90;;;;;;5047436;28;20195;-60
2022/05/11 04:16:30;;;;;;;7.83;7.13;;;15.90;99.90;;;;;;5049881;28;20178;-59
2022/05/11 04:18:55;;;;;;;8.30;7.60;;;16.20;99.90;;;;;;5048204;28;20241;-59
2022/05/11 04:21:21;;;;;;;7.43;6.80;;;16.40;99.90;;;;;;5049750;28;20193;-60
2022/05/11 04:23:47;;;;;;;8.33;7.63;;;16.30;99.90;;;;;;5044263;28;20197;-58
2022/05/11 04:26:14;;;;;;;7.47;6.87;;;16.40;99.90;;;;;;5047030;28;20198;-58
2022/05/11 04:28:43;;;;;;;7.97;7.15;;;16.40;99.90;;;;;;5055443;28;20514;-58
2022/05/11 04:31:10;;;;;;;8.00;7.30;;;16.20;99.90;;;;;;5052415;28;20209;-58
2022/05/11 04:33:36;;;;;;;8.73;7.80;;;16.30;99.90;;;;;;5047764;28;20208;-58
2022/05/11 04:36:04;;;;;;;6.78;6.18;;;16.40;99.90;;;;;;5044715;28;20682;-57
2022/05/11 04:38:30;;;;;;;7.65;7.05;;;16.70;99.90;;;;;;5053074;28;20197;-59
2022/05/11 04:40:56;;;;;;;7.43;6.82;;;16.40;99.90;;;;;;5067512;28;20246;-59
2022/05/11 04:43:21;;;;;;;7.30;6.70;;;16.80;99.90;;;;;;5050868;28;20548;-59
2022/05/11 04:45:48;;;;;;;7.20;6.60;;;16.60;99.90;;;;;;5057649;28;20281;-58
2022/05/11 04:48:15;;;;;;;7.50;6.80;;;16.70;99.90;;;;;;5047668;28;20849;-58
2022/05/11 04:50:43;;;;;;;6.90;6.30;;;16.70;99.90;;;;;;5046446;28;20186;-59
2022/05/11 04:53:14;;;;;;;7.55;6.95;;;16.90;99.90;;;;;;5058974;28;20184;-59
2022/05/11 04:55:40;;;;;;;7.78;6.80;;;16.60;99.90;;;;;;5051414;28;20206;-59
2022/05/11 04:58:06;;;;;;;7.68;6.88;;;17.00;99.90;;;;;;5053309;28;20212;-60
2022/05/11 05:00:33;;;;;;;7.90;7.20;;;17.00;99.90;;;;;;5052585;28;20188;-59
2022/05/11 05:03:01;;;;;;;7.38;6.78;;;16.90;99.90;;;;;;5057853;28;20213;-59
2022/05/11 05:05:27;;;;;;;7.75;7.05;;;17.10;99.90;;;;;;5050221;28;20251;-59
2022/05/11 05:07:53;;;;;;;6.90;6.30;;;17.10;99.90;;;;;;5047145;28;20185;-62
2022/05/11 05:10:21;;;;;;;7.70;7.00;;;16.90;99.90;;;;;;5040934;28;20180;-64
2022/05/11 05:12:47;;;;;;;6.60;6.00;;;16.80;99.90;;;;;;5047299;28;20254;-62
2022/05/11 05:15:15;;;;;;;7.10;6.50;;;17.20;99.90;;;;;;5047944;28;20193;-62
2022/05/11 05:17:41;;;;;;;7.35;6.65;;;16.90;99.90;;;;;;5045380;28;20772;-63
2022/05/11 05:20:07;;;;;;;7.10;6.40;;;16.90;99.90;;;;;;5047018;28;20197;-62
2022/05/11 05:22:37;;;;;;;7.40;6.80;;;16.90;99.90;;;;;;5045248;28;20190;-61
2022/05/11 05:25:03;;;;;;;6.72;6.13;;;17.00;99.90;;;;;;5041085;28;20209;-61
2022/05/11 05:27:29;;;;;;;7.93;7.22;;;17.00;99.90;;;;;;5045472;28;20662;-60
2022/05/11 05:32:41;;;;;;;8.70;7.78;;;17.10;99.90;;;;;;5046829;28;20315;-61
2022/05/11 05:35:10;;;;;;;7.28;6.68;;;17.30;99.90;;;;;;5048690;28;20564;-59
2022/05/11 05:37:38;;;;;;;8.90;7.07;;;17.30;99.90;;;;;;5065731;28;20205;-61
2022/05/11 05:40:05;;;;;;;6.80;6.30;;;17.50;99.90;;;;;;5058589;28;20212;-61
2022/05/11 05:42:31;;;;;;;7.00;6.22;;;17.40;99.90;;;;;;5048237;28;20597;-61
2022/05/11 05:44:56;;;;;;;7.30;6.60;;;17.70;99.90;;;;;;5044466;28;20247;-62
2022/05/11 05:47:22;;;;;;;7.57;6.87;;;17.70;99.90;;;;;;5051039;28;20951;-62
2022/05/11 05:49:48;;;;;;;7.07;6.13;;;18.10;99.90;;;;;;5044306;28;20598;-61
2022/05/11 05:52:17;;;;;;;7.03;6.43;;;18.60;99.90;;;;;;5050972;28;20204;-62
2022/05/11 05:54:43;;;;;;;7.35;6.65;;;19.00;99.80;;;;;;5044492;28;20304;-62
2022/05/11 05:57:09;;;;;;;6.20;5.65;;;19.00;99.10;;;;;;5040194;28;20193;-62
2022/05/11 05:59:34;;;;;;;6.23;5.73;;;20.00;99.00;;;;;;5043709;28;20182;-61
2022/05/11 06:02:00;;;;;;;8.00;5.97;;;19.50;98.50;;;;;;5043503;28;20205;-64
2022/05/11 06:04:28;;;;;;;8.17;7.10;;;19.50;98.20;;;;;;5055017;28;20263;-59
2022/05/11 06:06:53;;;;;;;6.45;5.88;;;19.50;98.50;;;;;;5048184;28;20268;-62
2022/05/11 06:09:19;;;;;;;7.03;6.43;;;19.60;98.40;;;;;;5042638;28;20654;-65
2022/05/11 06:11:45;;;;;;;6.40;5.90;;;19.70;98.10;;;;;;5043489;28;20471;-65
2022/05/11 06:14:11;;;;;;;9.47;7.47;;;19.90;98.10;;;;;;5042024;28;20449;-65
2022/05/11 06:16:36;;;;;;;6.93;6.20;;;20.00;98.30;;;;;;5044921;28;20322;-63
2022/05/11 06:19:03;;;;;;;7.00;6.40;;;20.10;97.50;;;;;;5043741;28;20454;-64
2022/05/11 06:21:29;;;;;;;7.05;5.80;;;20.30;97.00;;;;;;5046614;28;20188;-64
2022/05/11 06:23:55;;;;;;;6.20;5.73;;;20.30;96.70;;;;;;5048417;28;20194;-63
2022/05/11 06:26:21;;;;;;;6.50;6.00;;;20.50;96.90;;;;;;5064327;28;20882;-75
2022/05/11 06:28:47;;;;;;;6.63;6.13;;;20.70;96.70;;;;;;5067863;28;20660;-70
2022/05/11 06:31:14;;;;;;;6.00;5.50;;;20.80;96.10;;;;;;5073116;28;20673;-71
2022/05/11 06:33:40;;;;;;;6.15;5.75;;;20.80;95.80;;;;;;5050488;28;20251;-65
2022/05/11 06:36:07;;;;;;;7.00;6.30;;;21.00;95.60;;;;;;5046521;28;20206;-61
2022/05/11 06:38:34;;;;;;;8.75;6.93;;;21.20;95.00;;;;;;5048765;28;20487;-60
2022/05/11 06:41:16;;;;;;;6.47;5.97;;;21.00;94.90;;;;;;5049295;28;20669;-59
2022/05/11 06:43:43;;;;;;;6.05;5.55;;;21.70;94.10;;;;;;5049441;28;20280;-60
2022/05/11 06:46:08;;;;;;;5.30;4.90;;;22.00;93.40;;;;;;5045476;28;20217;-60
2022/05/11 06:48:34;;;;;;;5.73;5.33;;;22.60;92.70;;;;;;5053527;28;20451;-59
2022/05/11 06:51:00;;;;;;;6.40;5.90;;;23.30;91.10;;;;;;5070016;28;20200;-60
2022/05/11 06:53:26;;;;;;;5.90;5.40;;;24.10;89.40;;;;;;5053012;28;20269;-60
2022/05/11 07:01:20;;;;;;;5.50;5.03;;;26.10;80.30;;;;;;5050103;28;20552;-60
2022/05/11 07:03:46;;;;;;;5.60;5.20;;;26.90;76.60;;;;;;5050103;28;20447;-67
2022/05/11 07:06:11;;;;;;;5.30;4.87;;;28.10;72.80;;;;;;5042925;28;20462;-70
2022/05/11 07:08:42;;;;;;;5.47;5.07;;;29.10;67.60;;;;;;5043597;28;20189;-69
2022/05/11 07:13:55;;;;;;;4.90;4.60;;;31.00;61.20;;;;;;5040841;28;20660;-67
2022/05/11 07:16:21;;;;;;;4.63;4.33;;;32.50;57.20;;;;;;5045750;28;20459;-68
2022/05/11 07:18:48;;;;;;;5.17;4.67;;;33.50;53.70;;;;;;5048849;28;20433;-68
2022/05/11 07:21:14;;;;;;;4.70;4.40;;;33.40;52.80;;;;;;5043986;28;20635;-61
2022/05/11 07:23:39;;;;;;;6.90;4.43;;;34.90;49.90;;;;;;5048616;28;20436;-61
2022/05/11 07:26:05;;;;;;;5.10;4.67;;;34.90;48.50;;;;;;5050197;28;21007;-60
2022/05/11 07:28:31;;;;;;;4.70;4.40;;;35.80;46.50;;;;;;5046087;28;20665;-63
2022/05/11 07:30:56;;;;;;;4.73;4.33;;;36.60;44.80;;;;;;5048989;28;20219;-64
2022/05/11 07:33:22;;;;;;;4.40;4.10;;;36.30;44.10;;;;;;5045334;28;20204;-63
2022/05/11 07:35:48;;;;;;;4.43;4.17;;;36.70;43.50;;;;;;5049663;28;20206;-65
2022/05/11 07:38:17;;;;;;;4.80;4.50;;;36.80;42.20;;;;;;5048800;28;20502;-62
2022/05/11 07:40:44;;;;;;;4.50;4.20;;;36.60;41.70;;;;;;5050104;28;20202;-62
2022/05/11 07:43:10;;;;;;;5.80;4.90;;;36.70;41.80;;;;;;5049052;28;20885;-63
2022/05/11 07:45:37;;;;;;;5.10;4.73;;;36.20;42.20;;;;;;5047583;28;20563;-66
2022/05/11 07:48:03;;;;;;;4.40;4.10;;;36.10;41.30;;;;;;5042007;28;20440;-63
2022/05/11 07:50:30;;;;;;;5.27;4.87;;;36.20;41.30;;;;;;5044054;28;20497;-63
2022/05/11 07:52:56;;;;;;;5.17;4.77;;;36.30;40.50;;;;;;5066745;28;20839;-66
2022/05/11 07:55:24;;;;;;;4.47;4.17;;;36.60;40.30;;;;;;5050259;28;20448;-66
2022/05/11 08:00:34;;;;;;;4.90;4.50;;;36.40;40.20;;;;;;5046753;28;20813;-58
2022/05/11 08:03:00;;;;;;;4.70;4.20;;;36.60;40.20;;;;;;5047647;28;20432;-58
2022/05/11 08:05:26;;;;;;;4.60;4.30;;;37.20;39.30;;;;;;5048589;28;20558;-59
2022/05/11 08:07:55;;;;;;;4.63;4.30;;;37.20;38.50;;;;;;5043213;28;20665;-62
2022/05/11 08:10:24;;;;;;;8.63;6.00;;;37.70;38.00;;;;;;5049216;28;21039;-64
2022/05/11 08:12:49;;;;;;;4.57;4.27;;;37.10;37.70;;;;;;5049211;28;20499;-62
2022/05/11 08:15:17;;;;;;;4.50;4.10;;;37.10;37.80;;;;;;5046725;28;20506;-60
2022/05/11 08:17:44;;;;;;;4.10;3.90;;;37.30;37.70;;;;;;5049299;28;20185;-60
2022/05/11 08:20:15;;;;;;;4.60;4.30;;;38.20;36.30;;;;;;5047106;28;20535;-61
2022/05/11 08:22:42;;;;;;;4.27;4.03;;;38.30;36.20;;;;;;5048591;28;20810;-61
2022/05/11 08:25:09;;;;;;;6.93;4.20;;;38.20;34.70;;;;;;5048936;28;20478;-65
2022/05/11 08:27:34;;;;;;;4.70;4.30;;;38.30;35.60;;;;;;5043449;28;20972;-64
2022/05/11 08:35:29;;;;;;;4.60;4.27;;;38.40;35.50;;;;;;5041462;28;20580;-65
2022/05/11 08:37:57;;;;;;;4.10;3.80;;;38.20;34.80;;;;;;5047606;28;20523;-67
2022/05/11 08:40:36;;;;;;;4.67;4.27;;;38.50;34.90;;;;;;5044499;28;20572;-67
2022/05/11 08:43:03;;;;;;;4.77;4.10;;;38.20;34.80;;;;;;5048606;28;20542;-63
2022/05/11 08:45:55;;;;;;;4.20;3.90;;;38.70;34.40;;;;;;5050291;28;20503;-60
2022/05/11 08:48:39;;;;;;;4.00;3.80;;;39.10;33.80;;;;;;5043524;28;20455;-60
2022/05/11 08:51:09;;;;;;;4.50;4.20;;;39.00;33.80;;;;;;5040671;28;20467;-61
2022/05/11 08:53:39;;;;;;;4.87;4.40;;;39.30;33.20;;;;;;5039848;28;20469;-61
2022/05/11 08:56:13;;;;;;;4.60;4.30;;;39.50;33.50;;;;;;5048406;28;20448;-62
2022/05/11 08:58:52;;;;;;;5.73;4.30;;;39.40;32.60;;;;;;5048283;28;20439;-61
2022/05/11 09:01:28;;;;;;;5.33;4.93;;;38.40;33.40;;;;;;5041447;28;20805;-61
2022/05/11 09:03:54;;;;;;;5.27;4.87;;;39.00;32.90;;;;;;5046221;28;20873;-61
2022/05/11 09:06:26;;;;;;;4.77;4.47;;;39.00;33.00;;;;;;5051404;28;20460;-63
2022/05/11 09:08:52;;;;;;;5.07;4.67;;;39.10;32.90;;;;;;5046809;28;21012;-64
2022/05/11 09:11:49;;;;;;;5.50;5.00;;;39.80;33.10;;;;;;5042890;28;20470;-63
2022/05/11 09:14:22;;;;;;;6.23;5.10;;;40.00;32.80;;;;;;5035244;28;20440;-62
2022/05/11 09:16:50;;;;;;;6.00;5.40;;;39.00;33.80;;;;;;5047592;28;20559;-62
2022/05/11 09:19:19;;;;;;;5.80;5.40;;;39.40;32.60;;;;;;5034714;28;20441;-65
2022/05/11 09:21:56;;;;;;;5.00;4.70;;;38.80;33.10;;;;;;5030790;28;20869;-61
2022/05/11 09:24:30;;;;;;;5.33;4.90;;;38.60;33.80;;;;;;5042075;28;20876;-62
2022/05/11 09:27:20;;;;;;;4.77;4.37;;;38.10;33.70;;;;;;5047449;28;20446;-64
2022/05/11 09:29:53;;;;;;;5.07;4.67;;;39.40;33.40;;;;;;5044415;28;20474;-63
2022/05/11 09:32:24;;;;;;;4.73;4.33;;;38.90;33.80;;;;;;5047053;28;20474;-61
2022/05/11 09:34:49;;;;;;;5.37;4.90;;;39.10;33.00;;;;;;5048782;28;20452;-60
2022/05/11 09:37:35;;;;;;;5.40;4.87;;;38.60;33.50;;;;;;5048369;28;20443;-63
2022/05/11 09:40:21;;;;;;;5.83;5.23;;;37.90;34.20;;;;;;5039821;28;20651;-62
2022/05/11 09:42:53;;;;;;;5.57;5.20;;;37.80;34.70;;;;;;5048968;28;20474;-65
2022/05/11 09:45:43;;;;;;;6.90;4.80;;;37.60;35.10;;;;;;5049320;28;20475;-64
2022/05/11 09:48:40;;;;;;;6.73;5.80;;;37.80;34.40;;;;;;5040756;28;20975;-65
2022/05/11 09:51:21;;;;;;;5.87;5.40;;;37.60;35.10;;;;;;5041856;28;20482;-70
2022/05/11 09:54:15;;;;;;;5.97;5.57;;;38.30;34.10;;;;;;5047281;28;20447;-65
2022/05/11 09:57:01;;;;;;;7.60;6.50;;;38.40;34.20;;;;;;5039766;28;20581;-66
2022/05/11 09:59:37;;;;;;;6.10;5.60;;;38.30;34.10;;;;;;5049404;28;20524;-66
2022/05/11 10:02:30;;;;;;;5.87;5.47;;;37.70;34.80;;;;;;5052966;28;20450;-65
2022/05/11 10:05:02;;;;;;;6.83;6.10;;;38.10;35.00;;;;;;5049250;28;20451;-63
2022/05/11 10:07:36;;;;;;;5.67;5.27;;;37.90;34.80;;;;;;5047308;28;20447;-63
2022/05/11 10:10:06;;;;;;;5.87;5.37;;;35.80;36.60;;;;;;5049949;28;20459;-61
2022/05/11 10:12:37;;;;;;;6.10;5.67;;;34.80;38.70;;;;;;5051188;28;20463;-62
2022/05/11 10:24:40;;;;;;;5.77;5.37;;;31.60;43.60;;;;;;5033987;28;20528;-61
2022/05/11 10:27:46;;;;;;;5.80;5.37;;;31.20;44.60;;;;;;5064102;28;20950;-64
2022/05/11 10:30:32;;;;;;;5.20;4.80;;;31.10;44.40;;;;;;5049176;28;20972;-62
2022/05/11 10:33:28;;;;;;;6.03;5.43;;;30.90;45.00;;;;;;5050579;28;20471;-63
2022/05/11 10:36:12;;;;;;;5.43;5.03;;;30.50;44.70;;;;;;5051429;28;20452;-61
2022/05/11 10:38:45;;;;;;;5.50;5.20;;;30.40;45.80;;;;;;5051090;28;20505;-65
2022/05/11 10:41:29;;;;;;;6.30;5.20;;;30.50;45.50;;;;;;5052022;28;20440;-64
2022/05/11 10:44:23;;;;;;;6.53;4.73;;;30.70;45.30;;;;;;5049497;28;20445;-63
2022/05/11 10:47:20;;;;;;;5.70;5.20;;;30.70;44.50;;;;;;5051602;28;20436;-62
2022/05/11 10:49:51;;;;;;;4.87;4.43;;;30.50;44.70;;;;;;5041193;28;20429;-61
2022/05/11 10:52:33;;;;;;;7.40;4.47;;;30.50;44.00;;;;;;5044981;28;20551;-63
2022/05/11 10:55:52;;;;;;;5.53;5.10;;;30.30;44.10;;;;;;5050433;28;20482;-62
2022/05/11 10:58:38;;;;;;;4.97;4.47;;;30.30;43.60;;;;;;5000390;28;20495;-62
2022/05/11 11:01:13;;;;;;;4.57;4.27;;;30.70;42.30;;;;;;5036917;28;20439;-62
2022/05/11 11:04:03;;;;;;;5.33;4.93;;;31.70;41.30;;;;;;5047711;28;20456;-62
2022/05/11 11:09:40;;;;;;;5.27;4.87;;;33.20;38.90;;;;;;5044819;28;20428;-60
2022/05/11 11:12:29;;;;;;;5.60;5.20;;;34.40;39.10;;;;;;5040645;28;20460;-59
2022/05/11 11:14:58;;;;;;;4.90;4.50;;;35.50;36.90;;;;;;5048183;28;20463;-60
2022/05/11 11:17:26;;;;;;;5.07;4.47;;;34.50;35.50;;;;;;5044777;28;20432;-62
2022/05/11 11:19:56;;;;;;;5.67;5.27;;;33.30;37.20;;;;;;5047206;28;20440;-64
2022/05/11 11:22:21;;;;;;;5.10;4.70;;;33.40;37.30;;;;;;5042918;28;20431;-63
2022/05/11 11:25:12;;;;;;;4.90;4.60;;;32.20;39.10;;;;;;5046600;28;20516;-63
2022/05/11 11:28:09;;;;;;;5.90;4.60;;;32.10;40.30;;;;;;5044009;28;20191;-63
2022/05/11 11:30:35;;;;;;;5.40;5.00;;;31.40;41.10;;;;;;5045504;28;20454;-62
2022/05/11 11:33:10;;;;;;;7.07;6.57;;;32.10;41.90;;;;;;5048084;28;20507;-66
2022/05/11 11:35:41;;;;;;;5.60;5.10;;;32.90;40.10;;;;;;5051580;28;20538;-68
2022/05/11 11:38:07;;;;;;;5.20;4.90;;;33.00;39.30;;;;;;5066531;28;21102;-66
2022/05/11 11:40:34;;;;;;;5.10;4.67;;;33.10;39.80;;;;;;5062284;28;21948;-70
2022/05/11 11:43:38;;;;;;;5.70;5.10;;;33.60;39.10;;;;;;5048398;28;20485;-67
2022/05/11 11:45:50;;;;;;;4.50;4.10;;;33.80;38.70;;;;;;5047962;28;20477;-71
2022/05/11 11:48:25;;;;;;;5.07;4.67;;;34.30;37.90;;;;;;5048824;28;20489;-66
2022/05/11 11:50:59;;;;;;;5.17;4.77;;;33.70;37.50;;;;;;5039255;28;20439;-61
2022/05/11 11:53:33;;;;;;;4.57;4.27;;;33.30;38.20;;;;;;5048147;28;20998;-64
2022/05/11 11:56:24;;;;;;;4.70;4.40;;;32.40;37.70;;;;;;5046815;28;20464;-68
2022/05/11 11:59:11;;;;;;;4.63;4.33;;;31.80;39.00;;;;;;5063230;28;20437;-62
2022/05/11 12:01:48;;;;;;;5.43;4.10;;;31.50;39.90;;;;;;5053915;28;20437;-62
2022/05/11 12:04:47;;;;;;;5.70;4.53;;;31.40;38.60;;;;;;5060501;28;20440;-62
2022/05/11 12:16:08;;;;;;;4.93;4.50;;;30.50;39.00;;;;;;5054222;28;20543;-62
2022/05/11 12:18:40;;;;;;;4.50;4.10;;;30.40;39.40;;;;;;5053145;28;20443;-60
2022/05/11 12:21:26;;;;;;;4.10;3.80;;;30.50;39.60;;;;;;5045149;28;20443;-60
2022/05/11 12:23:53;;;;;;;5.27;4.13;;;30.40;39.00;;;;;;5036845;28;20443;-59
2022/05/11 12:26:31;;;;;;;3.90;3.53;;;30.50;39.50;;;;;;5044032;28;20758;-62
2022/05/11 12:32:01;;;;;;;4.97;3.63;;;30.60;37.40;;;;;;5048601;28;20506;-60
2022/05/11 12:34:29;;;;;;;3.90;3.57;;;30.50;36.50;;;;;;5048045;28;20463;-65
2022/05/11 12:36:56;;;;;;;3.33;3.00;;;30.60;37.00;;;;;;5049462;28;20558;-61
2022/05/11 12:39:33;;;;;;;5.43;4.10;;;30.50;36.80;;;;;;5048619;28;20475;-60
2022/05/11 12:42:00;;;;;;;3.90;3.70;;;30.40;37.10;;;;;;5050968;28;20542;-61
2022/05/11 12:44:32;;;;;;;4.17;3.80;;;30.30;36.90;;;;;;5045750;28;20529;-61
2022/05/11 12:47:03;;;;;;;4.03;3.73;;;30.30;37.70;;;;;;5046634;28;20455;-61
2022/05/11 12:49:29;;;;;;;4.27;3.60;;;30.30;37.30;;;;;;5047127;28;21200;-64
2022/05/11 12:52:02;;;;;;;4.23;3.90;;;30.20;37.40;;;;;;5048467;28;20482;-61
2022/05/11 12:54:29;;;;;;;4.47;3.93;;;30.30;38.00;;;;;;5041208;28;20461;-63
2022/05/11 12:57:05;;;;;;;6.03;5.57;;;30.30;38.10;;;;;;5044191;28;20478;-62
2022/05/11 12:59:33;;;;;;;3.90;3.50;;;30.30;37.80;;;;;;5047286;28;20455;-63
2022/05/11 13:02:16;;;;;;;3.67;3.47;;;30.30;37.60;;;;;;5048674;28;20447;-62
2022/05/11 13:04:53;;;;;;;3.37;3.17;;;30.10;37.80;;;;;;5044557;28;20471;-61
2022/05/11 13:07:26;;;;;;;4.80;3.30;;;30.20;37.70;;;;;;5047962;28;20450;-61
2022/05/11 13:09:56;;;;;;;5.13;3.60;;;30.10;37.10;;;;;;5049324;28;20486;-59
2022/05/11 13:12:22;;;;;;;4.30;3.90;;;30.00;36.80;;;;;;5043559;28;20656;-63
2022/05/11 13:14:54;;;;;;;3.70;3.30;;;29.90;36.60;;;;;;5063017;28;20450;-60
2022/05/11 13:17:25;;;;;;;3.77;3.53;;;29.90;37.10;;;;;;5047775;28;20557;-62
2022/05/11 13:19:55;;;;;;;3.60;3.40;;;29.90;37.50;;;;;;5046068;28;20458;-61
2022/05/11 13:22:25;;;;;;;5.03;4.00;;;29.90;37.50;;;;;;5042134;28;20440;-63
2022/05/11 13:25:03;;;;;;;4.00;3.70;;;30.00;38.40;;;;;;5047725;28;20468;-62
2022/05/11 13:27:34;;;;;;;9.50;4.73;;;30.10;37.10;;;;;;5044567;28;20803;-65
2022/05/11 13:30:27;;;;;;;4.33;3.93;;;30.00;37.20;;;;;;5046024;28;20785;-63
2022/05/11 13:32:54;;;;;;;4.80;4.40;;;30.00;37.60;;;;;;5048495;28;20502;-61
2022/05/11 13:35:29;;;;;;;4.00;3.57;;;30.00;37.60;;;;;;5048638;28;20462;-64
2022/05/11 13:38:01;;;;;;;4.03;3.67;;;29.90;37.50;;;;;;5053372;28;20461;-59
2022/05/11 13:40:33;;;;;;;4.73;4.40;;;30.00;37.30;;;;;;5053281;28;20446;-60
2022/05/11 13:43:00;;;;;;;6.13;3.80;;;30.10;36.80;;;;;;5049643;28;20465;-62
2022/05/11 13:45:26;;;;;;;6.30;3.83;;;30.20;36.30;;;;;;5050197;28;20497;-59
2022/05/11 13:48:15;;;;;;;6.23;3.70;;;30.20;36.00;;;;;;5051798;28;20444;-62
2022/05/11 13:50:48;;;;;;;3.60;3.30;;;30.20;36.70;;;;;;5048780;28;20470;-62
2022/05/11 13:53:29;;;;;;;5.10;3.50;;;30.30;36.50;;;;;;5065157;28;20987;-61
2022/05/11 13:56:00;;;;;;;4.23;3.57;;;30.20;36.50;;;;;;5049407;28;20470;-62